Capitol Logistics 974

Operating for DHL



LPPT
Aeroporto da Portela de Sacavem
Lisbon, PT
LPPD
João Paulo II Airport
Ponta Delgada, PT

Activity Log

Date Flight Route Aircraft Duration
01/12/2022 CPX974 BUSE2N BUSEN TABAX KOMUT 38N020W BEKUN BEKU2S B738 2h 25m

Route Details

Aircraft Information
Group: European Fleet
Types: A30F,A31F,B738
Route Data
Demand: H
Distance: 783nm
Duration: 2h 45m
Recm'd Route: BUSE2N BUSEN KOMUT 38N020W BEKUN BEKU7B
Origin Wx: LPPT 272200Z VRB03KT CAVOK 24/08 Q1014
Dest. Wx: LPPD 272200Z 20007KT 9999 FEW012 SCT044 18/16 Q1018
Notes:

Financial History
Total Freight: 45,936lbs
Average Load: 45,936lbs/flt
Fuel Used: 12,959lbs
Avg. Fuel Used: 12,959lbs/flt
Fuel Expense: $4,017
Avg. Fuel Expense: $4,017
Avg. Fuel Cost: $0.31/lbs
Total Gross Income: $93,755
Pilot Pay: $259
Total Expenses: $11,738
Total Revenue: $77,417
Average Revenue: $93,755.38